Terminal Aerodrome Forecast
Issued by NWS Topeka, KS

Home | Current Version | Previous Version | Graphics & Text | Print | Product List | Glossary On
Versions: 1 2 3 4 5 6 7 8 9 10 11 12 13 14 15 16 17 18 19 20 21 22 23 24 25 26 27 28 29 30 31 32 33
000
FTUS43 KTOP 021500 AAC
TAFTOP
TAF AMD
KTOP 021500Z 0215/0312 04002KT P6SM FEW005
      TEMPO 0215/0216 3SM BR BKN005
     FM021600 07003KT P6SM SCT040
     FM030600 13008KT P6SM VCTS BKN060CB=

USA.gov is the U.S. government's official web portal to all federal, state and local government web resources and services.